Terminal Aerodrome Forecast
Issued by NWS

Home | Current Version | Previous Version | Text Only | Print | Product List | Glossary On
Versions: 1 2 3 4 5 6 7 8 9 10 11 12 13 14 15 16 17 18 19 20 21 22 23
000
FTPA31 PHFO 282300
TAFJHM
TAF
PHJH 282337Z 2900/2924 03015G20KT P6SM FEW030 SCT040
     FM290400 07008KT P6SM FEW020 SCT040
     FM292000 03015G20KT P6SM FEW030 SCT040
      AMD NOT SKED AFT 290400=

USA.gov is the U.S. government's official web portal to all federal, state and local government web resources and services.